createdAt,value
2023-07-16T00:00:59.984Z,53.65
2023-07-16T00:03:27.593Z,52.98
2023-07-16T00:05:56.203Z,54.24
2023-07-16T00:08:22.709Z,53.92
2023-07-16T00:10:50.396Z,54.66
2023-07-16T00:13:18.005Z,54.41
2023-07-16T00:15:46.580Z,55.09
2023-07-16T00:18:14.216Z,54.83
2023-07-16T00:20:41.762Z,54.02
2023-07-16T00:23:08.487Z,52.22
2023-07-16T00:25:35.291Z,53.62
2023-07-16T00:28:02.044Z,52.36
2023-07-16T00:30:28.622Z,52.86
2023-07-16T00:32:55.752Z,52.79
2023-07-16T00:35:23.302Z,52.98
2023-07-16T00:37:49.892Z,53.75
2023-07-16T00:40:16.792Z,55.20
2023-07-16T00:42:44.076Z,54.93
2023-07-16T00:45:11.667Z,54.33
2023-07-16T00:47:39.275Z,53.97
2023-07-16T00:50:06.847Z,53.61
2023-07-16T00:52:33.443Z,52.82
2023-07-16T00:55:00.434Z,52.57
2023-07-16T00:57:26.900Z,52.01
2023-07-16T00:59:53.370Z,52.97
2023-07-16T01:02:20.783Z,52.86
2023-07-16T01:04:47.310Z,52.26
2023-07-16T01:07:13.975Z,52.13
2023-07-16T01:09:40.890Z,51.93
2023-07-16T01:12:08.158Z,51.09
2023-07-16T01:14:34.751Z,51.27
2023-07-16T01:17:01.308Z,50.64
2023-07-16T01:19:27.829Z,51.71
2023-07-16T01:21:54.292Z,50.17
2023-07-16T01:24:20.808Z,51.55
2023-07-16T01:26:47.287Z,51.72
2023-07-16T01:29:14.444Z,52.14
2023-07-16T01:31:42.089Z,51.11
2023-07-16T01:34:09.731Z,49.84
2023-07-16T01:36:37.275Z,49.42
2023-07-16T01:39:05.919Z,48.77
2023-07-16T01:41:33.513Z,48.50
2023-07-16T01:44:00.407Z,49.02
2023-07-16T01:46:27.842Z,48.20
2023-07-16T01:48:55.268Z,48.83
2023-07-16T01:51:21.741Z,48.81
2023-07-16T01:53:48.196Z,49.40
2023-07-16T01:56:14.877Z,48.65
2023-07-16T01:58:42.639Z,48.29
2023-07-16T02:01:09.160Z,47.54
2023-07-16T02:03:36.949Z,47.84
2023-07-16T02:06:04.455Z,47.68
2023-07-16T02:08:31.126Z,48.06
2023-07-16T02:10:57.727Z,48.01
2023-07-16T02:13:25.305Z,48.15
2023-07-16T02:15:52.957Z,47.78
2023-07-16T02:18:20.492Z,47.63
2023-07-16T02:20:47.012Z,47.95
2023-07-16T02:23:13.493Z,48.23
2023-07-16T02:25:39.994Z,48.50
2023-07-16T02:28:06.835Z,48.64
2023-07-16T02:30:34.453Z,48.46
2023-07-16T02:33:01.137Z,48.06
2023-07-16T02:35:28.639Z,47.91
2023-07-16T02:37:56.216Z,47.83
2023-07-16T02:40:24.821Z,47.61
2023-07-16T02:42:51.451Z,48.04
2023-07-16T02:45:18.044Z,47.85
2023-07-16T02:47:44.579Z,47.60
2023-07-16T02:50:11.128Z,47.73
2023-07-16T02:52:37.602Z,47.61
2023-07-16T02:55:04.095Z,47.81
2023-07-16T02:57:30.596Z,48.49
2023-07-16T02:59:57.588Z,48.42
2023-07-16T03:02:24.249Z,48.34
2023-07-16T03:04:51.804Z,47.90
2023-07-16T03:07:19.364Z,48.67
2023-07-16T03:09:45.966Z,48.88
2023-07-16T03:12:13.655Z,49.39
2023-07-16T03:14:41.167Z,49.91
2023-07-16T03:17:07.906Z,49.99
2023-07-16T03:19:35.329Z,49.79
2023-07-16T03:22:01.786Z,50.41
2023-07-16T03:24:28.302Z,49.88
2023-07-16T03:27:04.285Z,48.76
2023-07-16T03:29:39.331Z,49.06
2023-07-16T03:32:05.820Z,48.53
2023-07-16T03:34:32.927Z,48.76
2023-07-16T03:37:00.568Z,48.76
2023-07-16T03:39:27.178Z,49.90
2023-07-16T03:41:54.726Z,50.32
2023-07-16T03:44:22.322Z,53.34
2023-07-16T03:46:49.062Z,55.60
2023-07-16T03:49:15.561Z,57.85
2023-07-16T03:51:42.047Z,57.85
2023-07-16T03:54:09.662Z,56.08
2023-07-16T03:56:36.196Z,56.76
2023-07-16T03:59:03.866Z,57.38
2023-07-16T04:01:32.576Z,58.36
2023-07-16T04:04:00.186Z,56.78
2023-07-16T04:06:26.882Z,55.68
2023-07-16T04:08:53.452Z,56.29
2023-07-16T04:11:20.900Z,56.62
2023-07-16T04:13:48.504Z,56.30
2023-07-16T04:16:15.215Z,56.59
2023-07-16T04:18:41.925Z,57.48
2023-07-16T04:21:08.578Z,56.14
2023-07-16T04:23:35.058Z,57.26
2023-07-16T04:26:01.567Z,57.96
2023-07-16T04:28:28.107Z,57.97
2023-07-16T04:30:55.678Z,58.47
2023-07-16T04:33:23.268Z,58.02
2023-07-16T04:35:49.841Z,58.69
2023-07-16T04:38:16.888Z,57.60
2023-07-16T04:40:44.017Z,57.41
2023-07-16T04:43:10.518Z,57.85
2023-07-16T04:45:37.023Z,57.83
2023-07-16T04:48:04.899Z,58.61
2023-07-16T04:50:32.396Z,57.93
2023-07-16T04:52:59.952Z,57.29
2023-07-16T04:55:26.615Z,55.96
2023-07-16T04:57:53.077Z,56.48
2023-07-16T05:00:21.792Z,57.08
2023-07-16T05:02:49.407Z,57.34
2023-07-16T05:05:16.961Z,55.91
2023-07-16T05:07:45.952Z,56.93
2023-07-16T05:10:12.573Z,56.22
2023-07-16T05:12:40.733Z,56.15
2023-07-16T05:15:08.305Z,57.04
2023-07-16T05:17:35.961Z,56.23
2023-07-16T05:20:02.606Z,56.28
2023-07-16T05:22:29.130Z,55.79
2023-07-16T05:24:56.669Z,56.47
2023-07-16T05:27:25.248Z,56.78
2023-07-16T05:29:51.923Z,54.72
2023-07-16T05:32:18.485Z,54.83
2023-07-16T05:34:44.989Z,54.79
2023-07-16T05:37:11.481Z,54.26
2023-07-16T05:39:37.997Z,53.94
2023-07-16T05:42:04.592Z,53.86
2023-07-16T05:44:31.252Z,53.49
2023-07-16T05:46:57.729Z,54.36
2023-07-16T05:49:24.197Z,54.33
2023-07-16T05:51:50.761Z,54.36
2023-07-16T05:54:17.289Z,54.02
2023-07-16T05:56:43.771Z,54.68
2023-07-16T05:59:13.021Z,55.43
2023-07-16T06:01:41.711Z,54.62
2023-07-16T06:04:09.659Z,56.01
2023-07-16T06:06:36.316Z,55.28
2023-07-16T06:09:02.992Z,53.47
2023-07-16T06:11:29.658Z,52.85
2023-07-16T06:13:56.223Z,52.60
2023-07-16T06:16:23.356Z,52.57
2023-07-16T06:18:51.937Z,53.02
2023-07-16T06:21:18.511Z,51.97
2023-07-16T06:23:44.999Z,50.26
2023-07-16T06:26:11.683Z,48.93
2023-07-16T06:28:38.281Z,49.36
2023-07-16T06:31:05.882Z,48.70
2023-07-16T06:33:32.395Z,49.43
2023-07-16T06:35:58.869Z,48.69
2023-07-16T06:38:27.120Z,49.55
2023-07-16T06:40:56.325Z,49.08
2023-07-16T06:43:22.896Z,50.16
2023-07-16T06:45:49.546Z,50.57
2023-07-16T06:48:16.210Z,48.04
2023-07-16T06:50:42.679Z,48.95
2023-07-16T06:53:09.199Z,47.79
2023-07-16T06:55:35.838Z,47.60
2023-07-16T06:58:02.325Z,47.47
2023-07-16T07:00:29.008Z,47.77
2023-07-16T07:02:56.648Z,47.73
2023-07-16T07:05:24.215Z,47.77
2023-07-16T07:07:50.807Z,48.02
2023-07-16T07:10:17.416Z,47.67
2023-07-16T07:12:44.993Z,47.75
2023-07-16T07:15:12.594Z,47.86
2023-07-16T07:17:40.229Z,47.99
2023-07-16T07:20:06.753Z,48.38
2023-07-16T07:22:33.383Z,48.09
2023-07-16T07:24:59.890Z,47.45
2023-07-16T07:27:26.569Z,46.63
2023-07-16T07:29:54.137Z,46.80
2023-07-16T07:32:21.812Z,46.48
2023-07-16T07:34:49.366Z,47.37
2023-07-16T07:37:16.948Z,47.65
2023-07-16T07:39:43.870Z,47.46
2023-07-16T07:42:11.276Z,47.01
2023-07-16T07:44:38.729Z,47.30
2023-07-16T07:47:05.347Z,45.86
2023-07-16T07:49:31.869Z,45.04
2023-07-16T07:51:58.340Z,45.15
2023-07-16T07:54:24.819Z,44.63
2023-07-16T07:56:51.584Z,43.88
2023-07-16T07:59:18.104Z,43.51
2023-07-16T08:01:44.629Z,43.37
2023-07-16T08:04:11.185Z,43.77
2023-07-16T08:06:37.674Z,43.49
2023-07-16T08:09:04.146Z,43.32
2023-07-16T08:11:30.617Z,43.43
2023-07-16T08:13:57.068Z,42.93
2023-07-16T08:16:23.571Z,43.17
2023-07-16T08:18:50.042Z,43.06
2023-07-16T08:21:16.517Z,44.18
2023-07-16T08:23:42.985Z,43.66
2023-07-16T08:26:09.484Z,44.17
2023-07-16T08:28:35.960Z,44.73
2023-07-16T08:31:02.458Z,44.39
2023-07-16T08:33:28.942Z,44.48
2023-07-16T08:35:55.435Z,43.88
2023-07-16T08:38:21.927Z,43.09
2023-07-16T08:40:48.392Z,44.57
2023-07-16T08:43:14.864Z,43.67
2023-07-16T08:45:41.352Z,44.16
2023-07-16T08:48:07.830Z,43.28
2023-07-16T08:50:34.389Z,43.98
2023-07-16T08:53:00.856Z,44.16
2023-07-16T08:55:27.412Z,43.63
2023-07-16T08:57:53.870Z,44.12
2023-07-16T09:00:20.352Z,42.69
2023-07-16T09:02:46.890Z,43.07
2023-07-16T09:05:24.112Z,43.48
2023-07-16T09:07:59.131Z,43.73
2023-07-16T09:10:25.613Z,43.68
2023-07-16T09:12:52.085Z,43.51
2023-07-16T09:15:18.544Z,43.69
2023-07-16T09:17:45.031Z,44.42
2023-07-16T09:20:11.570Z,43.85
2023-07-16T09:22:38.063Z,44.45
2023-07-16T09:25:04.566Z,44.58
2023-07-16T09:27:31.019Z,45.21
2023-07-16T09:29:57.520Z,45.30
2023-07-16T09:32:24.051Z,43.92
2023-07-16T09:34:50.539Z,44.07
2023-07-16T09:37:17.072Z,43.81
2023-07-16T09:39:43.545Z,43.26
2023-07-16T09:42:10.014Z,43.54
2023-07-16T09:44:36.482Z,44.31
2023-07-16T09:47:02.962Z,42.57
2023-07-16T09:49:29.403Z,43.73
2023-07-16T09:51:55.868Z,43.34
2023-07-16T09:54:22.338Z,43.34
2023-07-16T09:56:48.800Z,41.65
2023-07-16T09:59:15.262Z,42.93
2023-07-16T10:01:41.841Z,42.57
2023-07-16T10:04:08.542Z,40.22
2023-07-16T10:06:35.000Z,41.15
2023-07-16T10:09:01.470Z,39.04
2023-07-16T10:11:27.952Z,40.94
2023-07-16T10:13:54.433Z,40.78
2023-07-16T10:16:20.909Z,41.10
2023-07-16T10:18:47.414Z,41.31
2023-07-16T10:21:13.904Z,40.49
2023-07-16T10:23:40.382Z,40.39
2023-07-16T10:26:06.862Z,40.52
2023-07-16T10:28:33.488Z,40.28
2023-07-16T10:31:00.027Z,40.87
2023-07-16T10:33:26.548Z,40.33
2023-07-16T10:35:53.063Z,41.01
2023-07-16T10:38:19.515Z,41.11
2023-07-16T10:40:46.002Z,41.32
2023-07-16T10:43:12.479Z,40.40
2023-07-16T10:45:39.007Z,41.04
2023-07-16T10:48:05.524Z,41.32
2023-07-16T10:50:31.995Z,41.14
2023-07-16T10:52:58.458Z,41.14
2023-07-16T10:55:24.929Z,40.72
2023-07-16T10:57:51.413Z,40.57
2023-07-16T11:00:17.934Z,41.20
2023-07-16T11:02:44.512Z,41.25
2023-07-16T11:05:11.022Z,41.65
2023-07-16T11:07:37.484Z,41.13
2023-07-16T11:10:03.958Z,40.68
2023-07-16T11:12:30.589Z,41.39
2023-07-16T11:14:57.067Z,39.98
2023-07-16T11:17:23.567Z,40.29
2023-07-16T11:19:50.076Z,40.91
2023-07-16T11:22:16.532Z,41.11
2023-07-16T11:24:43.021Z,40.98
2023-07-16T11:27:09.492Z,41.13
2023-07-16T11:29:35.962Z,40.89
2023-07-16T11:32:02.466Z,40.20
2023-07-16T11:34:29.049Z,39.97
2023-07-16T11:36:55.559Z,39.93
2023-07-16T11:39:22.034Z,39.93
2023-07-16T11:41:48.499Z,39.22
2023-07-16T11:44:15.000Z,39.38
2023-07-16T11:46:41.521Z,38.64
2023-07-16T11:49:07.993Z,38.06
2023-07-16T11:51:34.490Z,38.86
2023-07-16T11:54:00.955Z,38.29
2023-07-16T11:56:27.425Z,38.68
2023-07-16T11:58:53.886Z,39.04
2023-07-16T12:01:20.420Z,38.80
2023-07-16T12:03:47.178Z,39.00
2023-07-16T12:06:13.783Z,38.47
2023-07-16T12:08:40.261Z,38.63
2023-07-16T12:11:06.748Z,39.02
2023-07-16T12:13:33.216Z,38.83
2023-07-16T12:15:59.697Z,38.29
2023-07-16T12:18:26.167Z,39.13
2023-07-16T12:20:52.649Z,39.34
2023-07-16T12:23:19.101Z,39.53
2023-07-16T12:25:45.569Z,38.88
2023-07-16T12:28:12.035Z,39.37
2023-07-16T12:30:38.536Z,39.56
2023-07-16T12:33:05.244Z,39.65
2023-07-16T12:35:31.943Z,39.79
2023-07-16T12:37:58.421Z,40.10
2023-07-16T12:40:24.882Z,40.17
2023-07-16T12:42:51.353Z,40.85
2023-07-16T12:45:17.822Z,40.64
2023-07-16T12:47:44.398Z,40.72
2023-07-16T12:50:10.917Z,40.70
2023-07-16T12:52:37.425Z,40.56
2023-07-16T12:55:03.906Z,40.31
2023-07-16T12:57:30.376Z,39.96
2023-07-16T12:59:56.871Z,39.69
2023-07-16T13:02:23.369Z,39.46
2023-07-16T13:04:49.895Z,39.50
2023-07-16T13:07:16.372Z,39.93
2023-07-16T13:09:42.830Z,39.28
2023-07-16T13:12:09.312Z,38.75
2023-07-16T13:14:35.789Z,39.04
2023-07-16T13:17:02.289Z,38.43
2023-07-16T13:19:28.794Z,38.57
2023-07-16T13:21:55.291Z,38.38
2023-07-16T13:24:21.771Z,38.49
2023-07-16T13:26:49.037Z,38.17
2023-07-16T13:29:15.679Z,38.13
2023-07-16T13:31:42.165Z,38.06
2023-07-16T13:34:08.624Z,38.00
2023-07-16T13:36:35.096Z,37.88
2023-07-16T13:39:04.509Z,37.92
2023-07-16T13:41:32.127Z,37.59
2023-07-16T13:43:58.695Z,37.50
2023-07-16T13:46:25.179Z,37.98
2023-07-16T13:48:58.385Z,37.85
2023-07-16T13:51:25.876Z,38.07
2023-07-16T13:53:52.343Z,38.71
2023-07-16T13:56:19.343Z,37.62
2023-07-16T13:58:46.115Z,38.31
2023-07-16T14:01:12.607Z,37.46
2023-07-16T14:03:39.284Z,37.54
2023-07-16T14:06:05.885Z,38.69
2023-07-16T14:08:32.372Z,37.37
2023-07-16T14:10:58.860Z,37.76
2023-07-16T14:13:25.319Z,38.40
2023-07-16T14:15:51.761Z,39.38
2023-07-16T14:18:18.307Z,39.42
2023-07-16T14:20:44.774Z,39.50
2023-07-16T14:23:11.305Z,40.25
2023-07-16T14:25:37.948Z,39.58
2023-07-16T14:28:04.447Z,40.03
2023-07-16T14:30:30.939Z,40.36
2023-07-16T14:32:57.447Z,40.96
2023-07-16T14:35:35.067Z,40.61
2023-07-16T14:38:03.389Z,40.97
2023-07-16T14:40:29.923Z,40.58
2023-07-16T14:42:56.381Z,40.89
2023-07-16T14:45:22.917Z,41.09
2023-07-16T14:47:49.552Z,42.44
2023-07-16T14:50:16.143Z,42.02
2023-07-16T14:52:42.598Z,40.60
2023-07-16T14:55:09.055Z,41.00
2023-07-16T14:57:35.564Z,40.72
2023-07-16T15:00:02.047Z,40.93
2023-07-16T15:02:28.506Z,40.86
2023-07-16T15:04:55.020Z,40.54
2023-07-16T15:07:21.493Z,41.07
2023-07-16T15:09:47.975Z,40.93
2023-07-16T15:12:14.443Z,41.19
2023-07-16T15:14:40.894Z,40.46
2023-07-16T15:17:07.370Z,40.70
2023-07-16T15:19:34.005Z,40.48
2023-07-16T15:22:00.499Z,40.25
2023-07-16T15:24:26.962Z,40.64
2023-07-16T15:26:53.429Z,40.42
2023-07-16T15:29:19.899Z,40.63
2023-07-16T15:31:46.475Z,39.59
2023-07-16T15:34:13.076Z,39.52
2023-07-16T15:36:39.553Z,39.29
2023-07-16T15:39:06.014Z,38.65
2023-07-16T15:41:32.503Z,38.85
2023-07-16T15:43:58.954Z,38.29
2023-07-16T15:46:25.451Z,38.77
2023-07-16T15:48:51.989Z,38.79
2023-07-16T15:51:18.475Z,37.80
2023-07-16T15:53:44.945Z,38.12
2023-07-16T15:56:11.534Z,37.92
2023-07-16T15:58:38.006Z,36.93
2023-07-16T16:01:04.640Z,37.17
2023-07-16T16:03:31.187Z,36.53
2023-07-16T16:05:57.763Z,36.77
2023-07-16T16:08:24.227Z,37.00
2023-07-16T16:10:50.682Z,36.14
2023-07-16T16:13:17.160Z,36.31
2023-07-16T16:15:43.641Z,36.20
2023-07-16T16:18:10.251Z,36.11
2023-07-16T16:20:36.842Z,36.84
2023-07-16T16:23:03.395Z,35.59
2023-07-16T16:25:29.991Z,36.38
2023-07-16T16:27:56.452Z,37.23
2023-07-16T16:30:22.967Z,37.38
2023-07-16T16:32:49.429Z,38.26
2023-07-16T16:35:16.670Z,38.75
2023-07-16T16:37:43.318Z,38.04
2023-07-16T16:40:09.788Z,38.63
2023-07-16T16:42:36.259Z,38.77
2023-07-16T16:45:02.732Z,38.90
2023-07-16T16:47:29.212Z,38.97
2023-07-16T16:49:55.860Z,38.54
2023-07-16T16:52:22.357Z,38.32
2023-07-16T16:54:50.577Z,38.55
2023-07-16T16:57:17.054Z,39.14
2023-07-16T16:59:43.501Z,39.13
2023-07-16T17:02:10.033Z,39.27
2023-07-16T17:04:36.579Z,39.76
2023-07-16T17:07:03.099Z,40.30
2023-07-16T17:09:29.617Z,39.88
2023-07-16T17:11:56.101Z,40.64
2023-07-16T17:14:22.574Z,40.41
2023-07-16T17:16:49.021Z,40.82
2023-07-16T17:19:15.532Z,40.72
2023-07-16T17:21:42.043Z,41.78
2023-07-16T17:24:08.558Z,41.31
2023-07-16T17:26:35.012Z,41.03
2023-07-16T17:29:01.536Z,41.25
2023-07-16T17:31:28.144Z,41.79
2023-07-16T17:33:54.656Z,42.13
2023-07-16T17:36:21.152Z,41.68
2023-07-16T17:38:47.636Z,41.67
2023-07-16T17:41:14.204Z,42.35
2023-07-16T17:43:40.804Z,42.40
2023-07-16T17:46:07.359Z,42.03
2023-07-16T17:48:34.286Z,42.63
2023-07-16T17:51:00.922Z,42.91
2023-07-16T17:53:27.427Z,42.29
2023-07-16T17:55:53.887Z,43.25
2023-07-16T17:58:20.366Z,43.10
2023-07-16T18:00:46.822Z,43.01
2023-07-16T18:03:13.434Z,42.86
2023-07-16T18:05:40.016Z,43.42
2023-07-16T18:08:06.521Z,43.10
2023-07-16T18:10:32.987Z,43.46
2023-07-16T18:12:59.459Z,43.58
2023-07-16T18:15:25.902Z,43.36
2023-07-16T18:17:52.472Z,43.47
2023-07-16T18:20:19.469Z,43.99
2023-07-16T18:22:46.310Z,44.19
2023-07-16T18:25:12.784Z,44.19
2023-07-16T18:27:39.279Z,44.67
2023-07-16T18:30:05.745Z,44.67
2023-07-16T18:32:32.252Z,44.95
2023-07-16T18:34:58.759Z,45.74
2023-07-16T18:37:25.217Z,45.97
2023-07-16T18:39:51.682Z,45.39
2023-07-16T18:42:20.093Z,45.85
2023-07-16T18:44:46.710Z,45.77
2023-07-16T18:47:13.207Z,45.81
2023-07-16T18:49:39.680Z,46.20
2023-07-16T18:52:06.228Z,46.44
2023-07-16T18:54:32.682Z,47.12
2023-07-16T18:57:01.474Z,46.53
2023-07-16T18:59:29.640Z,47.24
2023-07-16T19:01:56.144Z,47.87
2023-07-16T19:04:22.701Z,47.86
2023-07-16T19:06:49.215Z,48.10
2023-07-16T19:09:15.732Z,47.70
2023-07-16T19:11:42.347Z,48.38
2023-07-16T19:14:08.810Z,48.30
2023-07-16T19:16:35.362Z,48.33
2023-07-16T19:19:01.885Z,48.12
2023-07-16T19:21:28.391Z,48.99
2023-07-16T19:23:54.867Z,48.85
2023-07-16T19:26:21.336Z,48.68
2023-07-16T19:28:47.791Z,49.05
2023-07-16T19:31:14.258Z,48.85
2023-07-16T19:33:40.817Z,49.45
2023-07-16T19:36:14.146Z,49.24
2023-07-16T19:38:41.437Z,49.10
2023-07-16T19:41:07.917Z,49.27
2023-07-16T19:43:34.422Z,49.60
2023-07-16T19:46:00.921Z,49.16
2023-07-16T19:48:27.385Z,49.51
2023-07-16T19:50:53.905Z,49.44
2023-07-16T19:53:20.379Z,49.17
2023-07-16T19:55:46.868Z,49.63
2023-07-16T19:58:13.337Z,49.49
2023-07-16T20:00:39.799Z,49.62
2023-07-16T20:03:06.420Z,50.11
2023-07-16T20:05:33.060Z,49.80
2023-07-16T20:07:59.817Z,49.94
2023-07-16T20:10:26.344Z,49.65
2023-07-16T20:12:52.880Z,50.08
2023-07-16T20:15:19.345Z,50.21
2023-07-16T20:17:45.863Z,50.34
2023-07-16T20:20:12.635Z,50.27
2023-07-16T20:22:39.249Z,50.55
2023-07-16T20:25:05.758Z,50.75
2023-07-16T20:27:32.230Z,50.49
2023-07-16T20:29:58.689Z,50.97
2023-07-16T20:32:25.186Z,51.15
2023-07-16T20:34:51.706Z,51.39
2023-07-16T20:37:18.174Z,51.75
2023-07-16T20:39:44.654Z,51.65
2023-07-16T20:42:11.124Z,52.15
2023-07-16T20:44:39.363Z,52.36
2023-07-16T20:47:06.229Z,52.83
2023-07-16T20:49:32.784Z,52.25
2023-07-16T20:51:59.270Z,52.14
2023-07-16T20:54:25.740Z,52.74
2023-07-16T20:56:52.239Z,52.81
2023-07-16T20:59:18.723Z,52.80
2023-07-16T21:01:45.300Z,52.60
2023-07-16T21:04:11.830Z,52.71
2023-07-16T21:06:38.313Z,53.20
2023-07-16T21:09:04.750Z,53.23
2023-07-16T21:11:31.253Z,53.55
2023-07-16T21:13:57.808Z,53.16
2023-07-16T21:16:24.467Z,53.13
2023-07-16T21:18:50.974Z,52.37
2023-07-16T21:21:17.942Z,52.04
2023-07-16T21:23:44.709Z,52.44
2023-07-16T21:26:11.169Z,52.24
2023-07-16T21:28:37.911Z,52.23
2023-07-16T21:31:04.588Z,52.25
2023-07-16T21:33:31.140Z,52.27
2023-07-16T21:35:57.641Z,51.41
2023-07-16T21:38:24.117Z,51.64
2023-07-16T21:40:50.588Z,51.68
2023-07-16T21:43:17.073Z,51.45
2023-07-16T21:45:43.546Z,51.10
2023-07-16T21:48:12.783Z,51.15
2023-07-16T21:50:39.976Z,50.87
2023-07-16T21:53:06.458Z,51.39
2023-07-16T21:55:32.926Z,51.44
2023-07-16T21:57:59.408Z,50.89
2023-07-16T22:00:25.997Z,50.97
2023-07-16T22:02:52.535Z,51.02
2023-07-16T22:05:19.067Z,51.13
2023-07-16T22:07:45.582Z,51.44
2023-07-16T22:10:12.065Z,51.62
2023-07-16T22:12:38.583Z,51.54
2023-07-16T22:15:05.079Z,51.74
2023-07-16T22:17:31.625Z,51.56
2023-07-16T22:19:58.140Z,51.35
2023-07-16T22:22:24.630Z,51.41
2023-07-16T22:24:51.128Z,50.29
2023-07-16T22:27:17.590Z,49.53
2023-07-16T22:29:44.049Z,49.44
2023-07-16T22:32:10.580Z,49.55
2023-07-16T22:34:37.077Z,49.75
2023-07-16T22:37:03.576Z,49.46
2023-07-16T22:39:30.047Z,49.65
2023-07-16T22:41:56.528Z,49.44
2023-07-16T22:44:23.088Z,49.36
2023-07-16T22:46:49.560Z,49.31
2023-07-16T22:49:16.121Z,49.50
2023-07-16T22:51:42.732Z,49.09
2023-07-16T22:54:09.197Z,49.09
2023-07-16T22:56:35.656Z,48.13
2023-07-16T22:59:02.127Z,48.06
2023-07-16T23:01:28.575Z,48.16
2023-07-16T23:03:55.065Z,48.55
2023-07-16T23:06:21.590Z,47.90
2023-07-16T23:08:48.129Z,47.91
2023-07-16T23:11:14.676Z,48.18
2023-07-16T23:13:41.178Z,48.73
2023-07-16T23:16:07.669Z,48.50
2023-07-16T23:18:34.142Z,48.54
2023-07-16T23:21:00.618Z,48.61
2023-07-16T23:23:27.075Z,49.06
2023-07-16T23:25:53.528Z,49.20
2023-07-16T23:28:19.982Z,48.71
2023-07-16T23:30:46.564Z,48.87
2023-07-16T23:33:13.251Z,48.69
2023-07-16T23:35:39.757Z,49.07
2023-07-16T23:38:06.242Z,49.20
2023-07-16T23:40:32.731Z,49.15
2023-07-16T23:42:59.164Z,48.99
2023-07-16T23:45:25.650Z,48.87
2023-07-16T23:47:52.157Z,48.68
2023-07-16T23:50:18.612Z,48.10
2023-07-16T23:52:45.082Z,47.80
2023-07-16T23:55:11.550Z,47.57
2023-07-16T23:57:38.507Z,47.43
